Accueil
METAR-TAF:

METAR-TAF

Aéroports :

Person County Airport

Roxboro, Caroline du Nord, États-Unis

latitude: 36-17-06N, longitude: 078-59-03W, altitude: 186 m

Observation

Le bulletin a été fait il y a 18 minutes, à 00:55 UTC
Vent calme
Température 12°C
Humidité 50%
Pression 1016 hPa
Visibilité: 16.1 km
Ciel clair

METAR: KTDF 120055Z AUTO 00000KT 10SM CLR 12/02 A3000 RMK AO2

Heure: 20:13 (01:13 UTC)


TAF: absent

Observations et prévisions météorologiques de plus de 4000 aéroports (messages METAR et TAF).

Les stations disponibles sont représentées par des disques jaunes et rouges sur la carte.

Passer la souris dessus pour voir le nom de la station.

Cliquer dessus pour voir les observations et prévisions météorologiques.

Pour changer de carte: cliquez sur les boutons verts avec une croix noire pour zoomer, sur le bouton vert avec un tiret pour effectuer un zoom arrière, ou sur les flèches vertes pour les cartes adjacentes.


METAR-TAF: